Forside
METAR-TAF:

METAR-TAF

Lufthavne :

Indianapolis, Indiana, USA

Breddekreds: 39-49-30N, længdekreds: 086-17-45W, højde: 250 m

Aktuelle vejr

Denne rapport blev lavet for 29 minutter siden, kl. 20:53 UTC
Vind 6 kt fra sydvest
Temperatur 2°C
Fugtighed 80%
Tryk 1013 hPa
Sigt: 16.1 km
Overskyet i en højde af 1300 ft

METAR: KEYE 262053Z AUTO 22006KT 10SM OVC013 02/M01 A2992 RMK AO2 SLP139 T00221011 56013

Tid: 16:22 (21:22 UTC)


TAF: fraværende

Vejrobservationer og prognoser fra mere end 4000 lufthavne (METAR og TAF).

De gule og røde prikker repræsenterer de meteorologiske stationer.

Flyt musen over at se navnet på stationen.

Så klik over at se vejr observationer og prognoser.

At skifte det kort: Klik på de grønne knapper med et sort kors for at zoome ind; på den grønne knap med en bindestreg for at zoome ud; eller på de grønne pile for tilstødende kort.


METAR-TAF: